Updated26/04/2017 18:40 
 

GeoURL
free counters
Scottish Weather Network UK Weather Network Cumulus Top Weather Sites

Peebles Weather - Nearby METAR Reports

Raw Data, Raw Data Expanded

Ignore low humidity and Dew Point values. Something wrong with the sensor.
Daytime temperatures are in direct sunlight so may be higher than official air temperature values.

Warnings and solar data not updating. Currently under investigation. (27th Oct 2016)

2017/04/26 17:20 EGPH 261720Z VRB03KT CAVOK 09/M02 Q1020
8.2°C 0.0 mm 0.0 mm 0.0 mm 3.3 mph 5.4 mph 1017.2 hPa 56% X-Ray Solar Flare Level
Planetary K-Index
Planetary K-Index History
Station Warn Rain Snow Flood Wind Ltng Heat Cold Glob Moon Temp Rain 1h Rain Wed Rain 24h Wind 10m Gust Pressure Hum Proton Levels
Lost sensor contact!!!
0.235 m New moon Cold F1-WNW F:81 A:12 Kp:2 SSN:36

METAR Reports

 

EGPH - Edinburgh Airpor, United Kingdom
Distance from station: NNW 22mi, 36km
Updated: 26/04/2017 18:20
Clear
Clear
 Wind from varies
Wind: varies 3 mph , 6 km/h
Temperature: 9°C
Dew Point: -2°C
Humidity: 46%
Barometer: 1020 hPa
Summary: Clear
Visibility: greater than 7 miles , 10 km
2017/04/26 17:20 EGPH 261720Z VRB03KT CAVOK 09/M02 Q1020
EGOM - Spadeadam, United Kingdom
Distance from station: SSE 49mi, 79km
Updated: 26/04/2017 17:50
Overcast
Overcast
 Wind from NNW
Wind: NNW 7 mph , 11 km/h
Temperature: 6°C
Wind Chill: 4°C
Dew Point: -4°C
Humidity: 49%
Barometer: 1019 hPa
Clouds: Overcast
Visibility: 6 miles , 10 km
Cloud details: Overcast 1524 m
2017/04/26 16:50 EGOM 261650Z AUTO 34006KT 9999 OVC050/// 06/M04 Q1019
 
EGNC - Carlisle, United Kingdom
Distance from station: SSE 51mi, 82km
Updated: 26/04/2017 17:50
Mostly cloudy
Mostly cloudy
 Wind from NW
Wind: NW 2 mph , 4 km/h
Temperature: 7°C
Dew Point: -2°C
Humidity: 53%
Barometer: 1020 hPa
Clouds: Mostly cloudy
Visibility: 6 miles , 10 km
Cloud details: Few Clouds 914 m
Mostly cloudy 1372 m
2017/04/26 16:50 EGNC 261650Z 31002KT 9999 FEW030 BKN045 07/M02 Q1020
EGPF - Glasgow Airport, United Kingdom
Distance from station: WNW 51mi, 82km
Updated: 26/04/2017 18:20
Mostly cloudy
Mostly cloudy
 Wind from WNW
Wind: WNW 9 mph , 15 km/h
Temperature: 9°C
Wind Chill: 7°C
Dew Point: 1°C
Humidity: 58%
Barometer: 1021 hPa
Clouds: Mostly cloudy
Visibility: 6 miles , 10 km
Cloud details: Mostly cloudy 1433 m
2017/04/26 17:20 EGPF 261720Z AUTO 29008KT 9999 BKN047 09/01 Q1021
 
EGQL - Leuchars Raf, United Kingdom
Distance from station: NNE 53mi, 85km
Updated: 26/04/2017 17:58
Clear
Clear
 Wind from N
Wind: N 5 mph , 7 km/h
Temperature: 9°C
Wind Chill: 8°C
Dew Point: -2°C
Humidity: 46%
Barometer: 1019 hPa
Summary: Clear
Visibility: greater than 7 miles , 10 km
2017/04/26 16:58 EGQL 261658Z 35004KT CAVOK 09/M02 Q1019 BLU
EGPK - Prestwick(Civ/Na, United Kingdom
Distance from station: W 55mi, 89km
Updated: 26/04/2017 18:20
Partly cloudy
Partly cloudy
 Wind from NW
Wind: NW 9 mph , 15 km/h
Temperature: 9°C
Wind Chill: 7°C
Dew Point: 1°C
Humidity: 58%
Barometer: 1021 hPa
Clouds: Partly cloudy
Visibility: 6 miles , 10 km
Cloud details: Few Clouds 610 m
Partly cloudy 1067 m
2017/04/26 17:20 EGPK 261720Z 31008KT 9999 FEW020 SCT035 09/01 Q1021
 
EGPN - Dundee/Riverside, United Kingdom
Distance from station: N 56mi, 90km
Updated: 26/04/2017 17:50
Partly cloudy
Partly cloudy
 Wind from NW
Wind: NW 8 mph , 13 km/h
Temperature: 10°C
Wind Chill: 8°C
Dew Point: -2°C
Humidity: 43%
Barometer: 1019 hPa
Clouds: Partly cloudy
Visibility: 6 miles , 10 km
Cloud details: Partly cloudy 1494 m
2017/04/26 16:50 EGPN 261650Z 31007KT 250V010 9999 SCT049 10/M02 Q1019
EGNT - Newcastle, United Kingdom
Distance from station: SE 72mi, 116km
Updated: 26/04/2017 18:20
Partly cloudy
Partly cloudy
 Wind from NE
Wind: NE 6 mph , 9 km/h
Temperature: 6°C
Wind Chill: 4°C
Dew Point: 0°C
Humidity: 66%
Barometer: 1019 hPa
Clouds: Partly cloudy
Visibility: 6 miles , 10 km
Cloud details: Few Clouds 762 m
Partly cloudy 1463 m
2017/04/26 17:20 EGNT 261720Z 04005KT 9999 FEW025 SCT048 06/M00 Q1019
 
EGNV - Tees-Side, United Kingdom
Distance from station: SE 104mi, 168km
Updated: 26/04/2017 18:20
Few Clouds
Few Clouds
 Wind from NNE
Wind: NNE 10 mph , 17 km/h
Temperature: 7°C
Wind Chill: 4°C
Dew Point: -1°C
Humidity: 57%
Barometer: 1020 hPa
Clouds: Few Clouds
Visibility: 6 miles , 10 km
Cloud details: Few Clouds 853 m
2017/04/26 17:20 EGNV 261720Z 02009KT 9999 FEW028 07/M01 Q1020
EGPD - Aberdeen/Dyce, United Kingdom
Distance from station: NNE 114mi, 183km
Updated: 26/04/2017 18:20
Mostly cloudy
Mostly cloudy
 Wind from WNW
Wind: WNW 9 mph , 15 km/h
Temperature: 7°C
Wind Chill: 4°C
Dew Point: 1°C
Humidity: 66%
Barometer: 1018 hPa
Clouds: Mostly cloudy
Visibility: 6 miles , 10 km
Cloud details: Mostly cloudy 1402 m
2017/04/26 17:20 EGPD 261720Z AUTO 30008KT 260V330 9999 BKN046 07/01 Q1018 NOSIG
 
EGNS - Isle Of Man/Rona, United Kingdom
Distance from station: SSW 122mi, 197km
Updated: 26/04/2017 18:20
Mostly cloudy
Mostly cloudy
 Wind from NNW
Wind: NNW 10 mph , 17 km/h
Temperature: 8°C
Wind Chill: 5°C
Dew Point: 1°C
Humidity: 62%
Barometer: 1021 hPa
Clouds: Mostly cloudy
Visibility: 6 miles , 10 km
Cloud details: Few Clouds 914 m
Mostly cloudy 1433 m
2017/04/26 17:20 EGNS 261720Z 33009KT 270V360 9999 FEW030 BKN047 08/01 Q1021 NOSIG
EGAC - Belfast Harbour, United Kingdom
Distance from station: WSW 128mi, 206km
Updated: 26/04/2017 18:20
Nearby showers, Partly cloudy
Nearby showers, Partly cloudy
 Wind from NNW
Wind: NNW 10 mph , 17 km/h
Temperature: 10°C
Wind Chill: 8°C
Dew Point: 1°C
Humidity: 54%
Barometer: 1022 hPa
Summary: Nearby Showers
Clouds: Partly cloudy
Visibility: 6 miles , 10 km
Cloud details: Few Clouds 1097 m
Partly cloudy 1341 m
2017/04/26 17:20 EGAC 261720Z 33009KT 300V010 9999 VCSH FEW036 SCT044 10/01 Q1022
 
EGPE - Inverness/Dalcro, United Kingdom
Distance from station: NNW 134mi, 215km
Updated: 26/04/2017 18:20
Mostly cloudy
Mostly cloudy
 Wind from WNW
Wind: WNW 15 mph , 24 km/h
Temperature: 9°C
Wind Chill: 6°C
Dew Point: 1°C
Humidity: 58%
Barometer: 1019 hPa
Clouds: Mostly cloudy
Visibility: 6 miles , 10 km
Cloud details: Few Clouds 732 m
Mostly cloudy 1402 m
2017/04/26 17:20 EGPE 261720Z 30013KT 9999 FEW024 BKN046 09/01 Q1019
XHTML 1.1 | CSS